createdAt,value
2023-02-23T00:00:21.025Z,80.51
2023-02-23T00:03:33.753Z,80.67
2023-02-23T00:06:46.187Z,79.77
2023-02-23T00:09:58.924Z,80.49
2023-02-23T00:13:11.221Z,81.00
2023-02-23T00:16:24.906Z,82.20
2023-02-23T00:19:37.860Z,82.01
2023-02-23T00:22:51.455Z,81.42
2023-02-23T00:26:04.474Z,82.19
2023-02-23T00:29:22.066Z,81.73
2023-02-23T00:32:35.214Z,82.00
2023-02-23T00:35:47.817Z,82.36
2023-02-23T00:39:02.022Z,81.93
2023-02-23T00:42:15.533Z,82.24
2023-02-23T00:45:27.848Z,82.57
2023-02-23T00:48:40.449Z,82.25
2023-02-23T00:51:53.083Z,83.21
2023-02-23T00:55:13.322Z,83.61
2023-02-23T00:58:26.146Z,83.66
2023-02-23T01:01:39.118Z,83.30
2023-02-23T01:04:52.813Z,83.32
2023-02-23T01:08:09.404Z,83.53
2023-02-23T01:11:22.967Z,83.29
2023-02-23T01:14:35.818Z,82.81
2023-02-23T01:17:49.776Z,82.57
2023-02-23T01:21:03.091Z,82.59
2023-02-23T01:24:15.412Z,82.22
2023-02-23T01:27:29.293Z,82.22
2023-02-23T01:30:41.793Z,82.03
2023-02-23T01:33:58.430Z,81.82
2023-02-23T01:37:10.759Z,82.42
2023-02-23T01:40:29.866Z,82.50
2023-02-23T01:44:14.319Z,82.33
2023-02-23T01:47:27.334Z,82.11
2023-02-23T01:50:57.065Z,82.62
2023-02-23T01:54:14.512Z,82.53
2023-02-23T01:57:27.388Z,82.40
2023-02-23T02:00:40.242Z,81.92
2023-02-23T02:03:57.908Z,82.58
2023-02-23T02:07:10.883Z,82.71
2023-02-23T02:10:39.569Z,82.45
2023-02-23T02:14:13.933Z,82.82
2023-02-23T02:17:41.717Z,83.07
2023-02-23T02:21:06.061Z,83.41
2023-02-23T02:24:40.407Z,83.25
2023-02-23T02:28:30.235Z,83.73
2023-02-23T02:32:02.682Z,83.57
2023-02-23T02:35:46.988Z,83.37
2023-02-23T02:39:10.553Z,83.77
2023-02-23T02:42:30.153Z,83.39
2023-02-23T02:45:45.751Z,82.91
2023-02-23T02:49:02.662Z,83.42
2023-02-23T02:52:17.785Z,82.95
2023-02-23T02:55:34.444Z,82.45
2023-02-23T02:58:47.344Z,82.83
2023-02-23T03:02:18.570Z,82.21
2023-02-23T03:06:00.294Z,82.29
2023-02-23T03:09:39.391Z,81.78
2023-02-23T03:13:13.765Z,82.31
2023-02-23T03:17:13.288Z,82.21
2023-02-23T03:20:53.648Z,82.88
2023-02-23T03:24:30.520Z,82.29
2023-02-23T03:28:13.716Z,81.77
2023-02-23T03:31:59.605Z,81.65
2023-02-23T03:35:37.160Z,81.06
2023-02-23T03:39:15.204Z,80.65
2023-02-23T03:42:49.021Z,81.60
2023-02-23T03:46:19.972Z,80.84
2023-02-23T03:49:56.553Z,80.79
2023-02-23T03:53:27.516Z,80.85
2023-02-23T03:57:00.164Z,80.59
2023-02-23T04:00:34.336Z,80.63
2023-02-23T04:04:05.460Z,80.46
2023-02-23T04:07:37.791Z,80.16
2023-02-23T04:11:10.490Z,79.85
2023-02-23T04:14:44.821Z,79.86
2023-02-23T04:17:57.458Z,79.47
2023-02-23T04:21:09.847Z,79.07
2023-02-23T04:24:22.522Z,79.35
2023-02-23T04:27:36.123Z,79.53
2023-02-23T04:30:48.790Z,79.58
2023-02-23T04:34:01.196Z,79.79
2023-02-23T04:37:13.844Z,79.61
2023-02-23T04:40:26.545Z,79.97
2023-02-23T04:43:39.211Z,79.32
2023-02-23T04:46:51.565Z,79.50
2023-02-23T04:50:04.548Z,79.88
2023-02-23T04:53:16.869Z,79.55
2023-02-23T04:56:29.747Z,80.24
2023-02-23T04:59:42.528Z,80.17
2023-02-23T05:02:56.045Z,80.02
2023-02-23T05:06:08.357Z,79.81
2023-02-23T05:09:20.971Z,79.23
2023-02-23T05:12:33.357Z,79.67
2023-02-23T05:15:46.136Z,79.00
2023-02-23T05:18:58.515Z,79.58
2023-02-23T05:22:12.674Z,79.28
2023-02-23T05:25:25.490Z,79.69
2023-02-23T05:28:38.728Z,79.41
2023-02-23T05:31:51.205Z,79.94
2023-02-23T05:35:03.984Z,79.53
2023-02-23T05:38:16.380Z,79.58
2023-02-23T05:41:29.016Z,79.46
2023-02-23T05:44:41.377Z,79.36
2023-02-23T05:47:54.013Z,78.97
2023-02-23T05:51:11.644Z,78.62
2023-02-23T05:54:24.300Z,78.72
2023-02-23T05:57:36.673Z,78.54
2023-02-23T06:00:49.288Z,78.46
2023-02-23T06:04:02.424Z,77.79
2023-02-23T06:07:15.970Z,77.71
2023-02-23T06:10:28.610Z,77.81
2023-02-23T06:13:41.296Z,77.15
2023-02-23T06:16:53.910Z,77.72
2023-02-23T06:20:07.322Z,77.55
2023-02-23T06:23:20.062Z,77.60
2023-02-23T06:26:33.334Z,77.27
2023-02-23T06:29:45.928Z,76.54
2023-02-23T06:32:58.265Z,76.58
2023-02-23T06:36:11.001Z,75.81
2023-02-23T06:39:23.352Z,75.66
2023-02-23T06:42:36.760Z,77.57
2023-02-23T06:45:49.145Z,75.40
2023-02-23T06:49:01.945Z,76.50
2023-02-23T06:52:14.570Z,75.78
2023-02-23T06:55:27.304Z,74.85
2023-02-23T06:58:40.606Z,75.24
2023-02-23T07:01:53.290Z,75.34
2023-02-23T07:05:05.803Z,75.73
2023-02-23T07:08:18.523Z,74.88
2023-02-23T07:11:30.850Z,74.20
2023-02-23T07:14:43.500Z,75.55
2023-02-23T07:17:56.867Z,74.43
2023-02-23T07:21:09.464Z,74.86
2023-02-23T07:24:21.989Z,74.05
2023-02-23T07:27:34.975Z,73.54
2023-02-23T07:30:47.722Z,73.67
2023-02-23T07:34:00.337Z,74.18
2023-02-23T07:37:12.718Z,73.49
2023-02-23T07:40:26.233Z,73.61
2023-02-23T07:43:38.835Z,73.62
2023-02-23T07:46:53.130Z,74.05
2023-02-23T07:50:09.836Z,72.78
2023-02-23T07:53:22.434Z,72.11
2023-02-23T07:56:35.421Z,71.39
2023-02-23T07:59:48.589Z,70.56
2023-02-23T08:03:01.456Z,71.24
2023-02-23T08:06:14.101Z,71.11
2023-02-23T08:09:26.429Z,69.76
2023-02-23T08:12:39.199Z,69.27
2023-02-23T08:15:51.548Z,68.91
2023-02-23T08:19:04.264Z,68.28
2023-02-23T08:22:16.568Z,67.73
2023-02-23T08:25:31.841Z,67.39
2023-02-23T08:28:45.887Z,69.80
2023-02-23T08:31:58.699Z,68.42
2023-02-23T08:35:11.181Z,67.34
2023-02-23T08:38:23.776Z,66.95
2023-02-23T08:41:36.153Z,66.52
2023-02-23T08:44:51.573Z,64.54
2023-02-23T08:48:04.048Z,64.34
2023-02-23T08:51:16.900Z,64.16
2023-02-23T08:54:29.381Z,63.41
2023-02-23T08:57:42.020Z,62.96
2023-02-23T09:00:54.383Z,64.50
2023-02-23T09:04:06.997Z,63.67
2023-02-23T09:07:22.657Z,61.73
2023-02-23T09:10:35.791Z,61.30
2023-02-23T09:13:48.148Z,61.37
2023-02-23T09:17:00.781Z,62.18
2023-02-23T09:20:15.764Z,63.96
2023-02-23T09:23:29.500Z,63.39
2023-02-23T09:26:43.529Z,62.90
2023-02-23T09:29:57.584Z,62.28
2023-02-23T09:33:10.030Z,60.94
2023-02-23T09:36:24.225Z,62.27
2023-02-23T09:39:38.947Z,62.31
2023-02-23T09:43:02.550Z,60.66
2023-02-23T09:47:04.663Z,59.39
2023-02-23T09:50:22.670Z,61.06
2023-02-23T09:53:41.595Z,60.89
2023-02-23T09:56:56.393Z,59.00
2023-02-23T10:00:27.460Z,58.68
2023-02-23T10:03:46.771Z,59.48
2023-02-23T10:07:06.630Z,59.55
2023-02-23T10:10:38.171Z,59.26
2023-02-23T10:14:18.839Z,59.53
2023-02-23T10:18:15.998Z,60.27
2023-02-23T10:21:36.178Z,59.55
2023-02-23T10:25:01.707Z,58.70
2023-02-23T10:28:20.235Z,57.71
2023-02-23T10:31:43.829Z,58.47
2023-02-23T10:34:56.808Z,58.11
2023-02-23T10:38:16.348Z,56.98
2023-02-23T10:41:29.470Z,55.53
2023-02-23T10:44:43.551Z,56.67
2023-02-23T10:47:55.780Z,55.60
2023-02-23T10:51:19.125Z,55.68
2023-02-23T10:54:39.568Z,54.45
2023-02-23T10:58:01.827Z,53.87
2023-02-23T11:01:15.929Z,54.81
2023-02-23T11:04:33.258Z,52.82
2023-02-23T11:07:45.586Z,53.93
2023-02-23T11:11:14.650Z,53.40
2023-02-23T11:14:30.518Z,53.43
2023-02-23T11:17:43.129Z,54.96
2023-02-23T11:20:55.564Z,52.66
2023-02-23T11:24:15.481Z,53.73
2023-02-23T11:27:27.854Z,52.35
2023-02-23T11:30:42.951Z,51.77
2023-02-23T11:33:55.580Z,54.31
2023-02-23T11:37:23.134Z,52.39
2023-02-23T11:40:35.508Z,52.44
2023-02-23T11:43:52.039Z,51.77
2023-02-23T11:47:04.437Z,52.12
2023-02-23T11:50:30.335Z,52.98
2023-02-23T11:53:45.324Z,52.67
2023-02-23T11:56:58.650Z,53.51
2023-02-23T12:00:22.752Z,53.76
2023-02-23T12:03:35.399Z,53.92
2023-02-23T12:06:47.750Z,54.58
2023-02-23T12:10:26.876Z,54.68
2023-02-23T12:13:46.127Z,55.26
2023-02-23T12:17:05.331Z,55.60
2023-02-23T12:20:26.978Z,55.05
2023-02-23T12:23:39.991Z,54.59
2023-02-23T12:26:59.141Z,55.53
2023-02-23T12:30:35.748Z,57.12
2023-02-23T12:33:50.631Z,56.78
2023-02-23T12:37:18.636Z,55.13
2023-02-23T12:40:32.547Z,57.02
2023-02-23T12:43:51.628Z,56.52
2023-02-23T12:47:41.218Z,56.18
2023-02-23T12:50:55.792Z,57.47
2023-02-23T12:54:09.724Z,56.34
2023-02-23T12:57:52.265Z,54.90
2023-02-23T13:01:22.064Z,55.13
2023-02-23T13:04:47.356Z,54.08
2023-02-23T13:08:13.263Z,54.12
2023-02-23T13:11:41.557Z,53.54
2023-02-23T13:14:57.346Z,52.91
2023-02-23T13:18:45.152Z,52.21
2023-02-23T13:22:32.289Z,54.24
2023-02-23T13:25:55.621Z,54.35
2023-02-23T13:29:45.790Z,53.74
2023-02-23T13:33:02.394Z,55.29
2023-02-23T13:36:14.729Z,54.52
2023-02-23T13:39:52.907Z,53.24
2023-02-23T13:43:30.220Z,53.61
2023-02-23T13:46:59.616Z,53.68
2023-02-23T13:50:22.582Z,55.30
2023-02-23T13:53:47.095Z,56.49
2023-02-23T13:57:01.396Z,54.83
2023-02-23T14:00:20.513Z,55.31
2023-02-23T14:03:35.544Z,57.20
2023-02-23T14:07:15.280Z,55.82
2023-02-23T14:10:41.406Z,55.64
2023-02-23T14:14:01.840Z,56.19
2023-02-23T14:17:14.374Z,57.31
2023-02-23T14:20:42.999Z,56.46
2023-02-23T14:24:21.252Z,56.55
2023-02-23T14:27:41.461Z,58.41
2023-02-23T14:31:13.014Z,59.03
2023-02-23T14:34:49.545Z,59.21
2023-02-23T14:38:10.984Z,59.45
2023-02-23T14:41:24.571Z,59.87
2023-02-23T14:44:41.326Z,60.30
2023-02-23T14:47:55.872Z,59.63
2023-02-23T14:51:20.607Z,59.71
2023-02-23T14:54:37.010Z,59.81
2023-02-23T14:57:49.984Z,59.18
2023-02-23T15:01:02.356Z,59.46
2023-02-23T15:04:18.034Z,59.21
2023-02-23T15:07:39.543Z,59.37
2023-02-23T15:11:12.111Z,59.45
2023-02-23T15:14:28.586Z,59.94
2023-02-23T15:17:42.535Z,58.30
2023-02-23T15:20:54.989Z,58.76
2023-02-23T15:24:13.392Z,58.55
2023-02-23T15:27:30.150Z,60.44
2023-02-23T15:30:47.330Z,61.17
2023-02-23T15:33:59.649Z,61.29
2023-02-23T15:37:20.064Z,61.54
2023-02-23T15:40:33.815Z,62.01
2023-02-23T15:43:46.455Z,62.02
2023-02-23T15:47:00.442Z,62.92
2023-02-23T15:50:35.990Z,62.92
2023-02-23T15:53:48.736Z,64.40
2023-02-23T15:57:14.067Z,64.11
2023-02-23T16:00:40.228Z,64.02
2023-02-23T16:04:09.378Z,64.18
2023-02-23T16:07:23.597Z,64.21
2023-02-23T16:10:41.795Z,65.08
2023-02-23T16:13:54.185Z,65.39
2023-02-23T16:17:11.538Z,67.36
2023-02-23T16:20:35.101Z,68.23
2023-02-23T16:23:49.273Z,68.65
2023-02-23T16:27:02.129Z,66.77
2023-02-23T16:30:23.515Z,66.70
2023-02-23T16:33:48.568Z,68.06
2023-02-23T16:37:15.777Z,67.51
2023-02-23T16:40:28.201Z,69.26
2023-02-23T16:43:40.766Z,68.07
2023-02-23T16:47:03.565Z,69.54
2023-02-23T16:50:20.345Z,70.25
2023-02-23T16:53:33.019Z,71.42
2023-02-23T16:56:46.441Z,70.81
2023-02-23T16:59:58.908Z,71.51
2023-02-23T17:03:25.511Z,70.61
2023-02-23T17:06:38.347Z,70.88
2023-02-23T17:09:50.985Z,70.11
2023-02-23T17:13:08.251Z,71.12
2023-02-23T17:16:21.200Z,72.76
2023-02-23T17:19:33.797Z,72.10
2023-02-23T17:22:46.400Z,72.45
2023-02-23T17:25:58.969Z,73.50
2023-02-23T17:29:11.671Z,73.81
2023-02-23T17:32:24.373Z,73.97
2023-02-23T17:35:37.593Z,74.94
2023-02-23T17:38:49.933Z,73.95
2023-02-23T17:42:02.531Z,75.34
2023-02-23T17:45:14.862Z,74.45
2023-02-23T17:48:27.880Z,73.14
2023-02-23T17:51:40.520Z,74.35
2023-02-23T17:54:54.503Z,74.64
2023-02-23T17:58:06.824Z,75.84
2023-02-23T18:01:19.998Z,75.83
2023-02-23T18:04:32.858Z,74.27
2023-02-23T18:07:48.289Z,73.51
2023-02-23T18:11:01.309Z,74.08
2023-02-23T18:14:14.455Z,75.02
2023-02-23T18:17:27.144Z,75.38
2023-02-23T18:20:39.478Z,74.49
2023-02-23T18:23:52.144Z,73.91
2023-02-23T18:27:04.594Z,73.32
2023-02-23T18:30:17.295Z,73.69
2023-02-23T18:33:31.506Z,74.13
2023-02-23T18:36:44.167Z,75.51
2023-02-23T18:39:57.867Z,76.36
2023-02-23T18:43:11.119Z,75.91
2023-02-23T18:46:23.498Z,75.66
2023-02-23T18:49:37.002Z,76.93
2023-02-23T18:52:50.917Z,76.01
2023-02-23T18:56:05.716Z,78.13
2023-02-23T18:59:18.105Z,76.77
2023-02-23T19:02:30.718Z,76.68
2023-02-23T19:05:52.870Z,77.46
2023-02-23T19:09:09.760Z,78.24
2023-02-23T19:12:22.164Z,77.19
2023-02-23T19:15:35.448Z,77.53
2023-02-23T19:18:47.978Z,78.48
2023-02-23T19:22:00.580Z,77.44
2023-02-23T19:25:14.507Z,77.52
2023-02-23T19:28:27.366Z,75.83
2023-02-23T19:31:39.837Z,75.56
2023-02-23T19:34:52.580Z,73.74
2023-02-23T19:38:04.895Z,73.80
2023-02-23T19:41:20.843Z,72.84
2023-02-23T19:44:34.026Z,72.66
2023-02-23T19:47:46.805Z,72.67
2023-02-23T19:50:59.165Z,72.49
2023-02-23T19:54:11.796Z,72.72
2023-02-23T19:57:24.172Z,72.50
2023-02-23T20:00:36.796Z,72.65
2023-02-23T20:03:55.344Z,73.83
2023-02-23T20:07:09.924Z,75.23
2023-02-23T20:10:25.842Z,75.99
2023-02-23T20:13:39.139Z,76.60
2023-02-23T20:16:51.900Z,76.89
2023-02-23T20:20:06.298Z,77.13
2023-02-23T20:23:18.951Z,77.62
2023-02-23T20:26:34.269Z,77.95
2023-02-23T20:29:48.102Z,77.75
2023-02-23T20:33:02.465Z,78.37
2023-02-23T20:36:15.109Z,78.92
2023-02-23T20:39:27.515Z,78.98
2023-02-23T20:42:41.676Z,79.92
2023-02-23T20:45:54.849Z,79.93
2023-02-23T20:49:11.242Z,80.50
2023-02-23T20:52:23.658Z,80.39
2023-02-23T20:55:36.328Z,81.01
2023-02-23T20:58:48.681Z,81.19
2023-02-23T21:02:01.744Z,81.16
2023-02-23T21:05:14.566Z,81.17
2023-02-23T21:08:28.785Z,81.61
2023-02-23T21:11:41.291Z,82.09
2023-02-23T21:14:53.959Z,81.57
2023-02-23T21:18:06.561Z,81.45
2023-02-23T21:21:19.474Z,81.40
2023-02-23T21:24:34.763Z,81.94
2023-02-23T21:27:48.176Z,82.37
2023-02-23T21:31:00.543Z,82.37
2023-02-23T21:34:15.403Z,82.94
2023-02-23T21:37:27.911Z,82.78
2023-02-23T21:40:42.401Z,83.57
2023-02-23T21:43:54.772Z,83.08
2023-02-23T21:47:07.523Z,83.09
2023-02-23T21:50:20.163Z,82.78
2023-02-23T21:53:33.097Z,82.31
2023-02-23T21:56:45.378Z,82.25
2023-02-23T21:59:58.193Z,82.47
2023-02-23T22:03:10.628Z,81.91
2023-02-23T22:06:28.319Z,82.21
2023-02-23T22:09:40.715Z,82.03
2023-02-23T22:12:57.005Z,81.47
2023-02-23T22:16:09.559Z,81.58
2023-02-23T22:19:22.229Z,81.43
2023-02-23T22:22:36.270Z,82.42
2023-02-23T22:25:48.988Z,81.28
2023-02-23T22:29:01.439Z,81.39
2023-02-23T22:32:14.319Z,81.32
2023-02-23T22:35:26.752Z,82.04
2023-02-23T22:38:40.516Z,81.55
2023-02-23T22:41:52.904Z,81.15
2023-02-23T22:45:06.227Z,81.20
2023-02-23T22:48:18.520Z,81.59
2023-02-23T22:51:31.160Z,83.02
2023-02-23T22:54:45.635Z,83.31
2023-02-23T22:57:59.912Z,83.11
2023-02-23T23:01:12.391Z,82.31
2023-02-23T23:04:25.901Z,83.00
2023-02-23T23:07:38.273Z,83.15
2023-02-23T23:10:51.033Z,82.83
2023-02-23T23:14:06.953Z,81.66
2023-02-23T23:17:20.392Z,82.54
2023-02-23T23:20:32.748Z,82.36
2023-02-23T23:23:45.440Z,82.61
2023-02-23T23:27:00.275Z,82.66
2023-02-23T23:30:13.367Z,83.02
2023-02-23T23:33:26.982Z,84.18
2023-02-23T23:36:43.073Z,84.93
2023-02-23T23:39:59.317Z,84.38
2023-02-23T23:43:12.272Z,84.98
2023-02-23T23:46:26.271Z,84.48
2023-02-23T23:49:39.188Z,85.99
2023-02-23T23:52:51.811Z,86.42
2023-02-23T23:56:06.409Z,85.54
2023-02-23T23:59:21.395Z,84.52
